Tadcaster, United Kingdom
Current Conditions -  °F | °C
As of 3:50 AM on Monday 26 Jan 2015 (Local Time) from EGXU Reporting Station
Broken Clouds Broken Clouds  
Wind Chill: 44°   Ceiling: 6000
Heat Index: 48°   Visibility: 6mi
Dew Point: 43°   Wind: 10mph
Humidity: 82%   Direction: 250°WSW
Pressure: 30.03"   Gusts: NA
Location:  53.88°N, 1.26°W
Report Text: EGXU 260350Z AUTO 25009KT 9999 // SCT018/// BKN060/// 09/06 Q1017
Loading
Personal Weather Stations






























Interactive Weather Map New forecast layout! Learn more

10-Day Weather Forecast

Advertisements
Track Severe Weather on mobile